Login to view Products
 
Sunday, May 19, 2019 (11:31 UTC)
Al Maktoum International Airport
Last Updated: 19-May-2019 (11:30Z)
Wind Dir/Speed: N at 07 kt
Temperature: 36.3°C
Rel. Humidity: 29 %
Pressure: 1007.2 hPa
Visibility: 10000 m
  • METAR OMDW 191130Z 01006KT 320V060 CAVOK 36/16 Q1007 TEMPO 16015G25KT 3000 BLDU
  • TAF OMDW 191055Z 1912/2018 35014KT 8000 NSC PROB30 TEMPO 1912/2005 VRB20G35KT 1500 SHRA BLDU FEW040TCU BECMG 1915/1917 12005KT BECMG 2003/2005 18013KT PROB30 TEMPO 2005/2008 18018G28KT 4000 BLDU BECMG 2008/2010 32015KT PROB30 TEMPO 2009/2013 33018G28KT 1500 BLDU BECMG 2015/2017 04005KT=
D:\Input Parser\Destinations\Final\10\OMDWL12181055893942346.txt
1